Time;durP1;ratioP1;P1;durP2;ratioP2;P2;SDS_P1;SDS_P2;PMS_P1;PMS_P2;Temp;Humidity;BMP_temperature;BMP_pressure;BME280_temperature;BME280_humidity;BME280_pressure;Samples;Min_cycle;Max_cycle;Signal;HPM_P1;HPM_P2
2022/01/24 00:00:07;;;;;;;16.43;14.67;;;;;21.30;102325.00;;;;2067912;28;20214;-65
2022/01/24 00:01:07;;;;;;;16.30;14.23;;;;;21.40;102332.00;;;;2067091;28;20223;-66
2022/01/24 00:02:07;;;;;;;16.13;14.00;;;;;21.30;102328.00;;;;2067797;28;20669;-65
2022/01/24 00:03:08;;;;;;;15.13;13.50;;;;;21.30;102332.00;;;;2068437;28;20242;-65
2022/01/24 00:04:08;;;;;;;15.30;13.70;;;;;21.30;102331.00;;;;2069142;28;20218;-65
2022/01/24 00:05:10;;;;;;;15.33;13.70;;;;;21.30;102323.00;;;;2068351;28;20218;-65
2022/01/24 00:06:14;;;;;;;14.50;13.10;;;;;21.30;102332.00;;;;2067765;28;20465;-66
2022/01/24 00:07:18;;;;;;;14.90;12.82;;;;;21.30;102332.00;;;;2068337;28;20470;-66
2022/01/24 00:08:20;;;;;;;15.80;13.82;;;;;21.30;102332.00;;;;2068235;28;20317;-65
2022/01/24 00:09:20;;;;;;;14.80;13.25;;;;;21.30;102325.00;;;;2067644;28;20222;-65
2022/01/24 00:10:24;;;;;;;13.07;11.70;;;;;21.30;102328.00;;;;2068085;28;20220;-65
2022/01/24 00:11:30;;;;;;;15.43;13.48;;;;;21.30;102327.00;;;;2067809;28;20281;-65
2022/01/24 00:15:02;;;;;;;13.45;12.05;;;;;21.30;102261.00;;;;2064816;28;20268;-65
2022/01/24 00:17:37;;;;;;;13.10;11.80;;;;;21.30;102322.00;;;;2068268;28;20807;-65
2022/01/24 00:27:42;;;;;;;11.77;10.68;;;;;21.20;102310.00;;;;2067924;28;20273;-65
2022/01/24 00:28:42;;;;;;;11.10;9.93;;;;;21.20;102316.00;;;;2068689;28;20223;-65
2022/01/24 00:29:42;;;;;;;10.40;9.27;;;;;21.20;102314.00;;;;2068570;28;20229;-65
2022/01/24 00:30:43;;;;;;;11.50;10.30;;;;;21.20;102320.00;;;;2068625;28;20215;-65
2022/01/24 00:31:43;;;;;;;11.10;9.90;;;;;21.20;102323.00;;;;2068751;28;20238;-65
2022/01/24 00:32:44;;;;;;;10.40;9.30;;;;;21.20;102317.00;;;;2067714;28;20210;-65
2022/01/24 00:33:44;;;;;;;9.53;8.63;;;;;21.20;102324.00;;;;2067319;28;20337;-65
2022/01/24 00:34:44;;;;;;;9.97;8.97;;;;;21.20;102320.00;;;;2067947;28;20261;-65
2022/01/24 00:35:50;;;;;;;10.10;9.10;;;;;21.20;102320.00;;;;2066620;28;20211;-65
2022/01/24 00:36:51;;;;;;;9.80;8.80;;;;;21.20;102324.00;;;;2064505;28;20218;-65
2022/01/24 00:37:52;;;;;;;9.98;8.15;;;;;21.20;102323.00;;;;2059571;28;20218;-65
2022/01/24 00:38:52;;;;;;;10.30;8.93;;;;;21.20;102324.00;;;;2075022;28;20298;-65
2022/01/24 00:39:52;;;;;;;8.83;7.93;;;;;21.20;102322.00;;;;2074236;28;20210;-65
2022/01/24 00:40:53;;;;;;;10.17;8.53;;;;;21.20;102333.00;;;;2068760;28;20617;-65
2022/01/24 00:42:06;;;;;;;9.33;8.43;;;;;21.20;102329.00;;;;2068870;28;20238;-65
2022/01/24 00:44:27;;;;;;;10.55;8.90;;;;;21.10;102322.00;;;;2067865;28;20651;-65
2022/01/24 00:44:52;;;;;;;8.80;7.90;;;;;21.10;102335.00;;;;2053974;28;20226;-64
2022/01/24 00:46:06;;;;;;;8.48;7.60;;;;;21.20;102329.00;;;;2064652;28;20214;-65
2022/01/24 00:47:16;;;;;;;8.80;7.90;;;;;21.10;102325.00;;;;2068251;28;20211;-65
2022/01/24 00:49:24;;;;;;;9.18;7.80;;;;;21.10;102327.00;;;;2067520;28;20582;-65
2022/01/24 00:54:43;;;;;;;8.40;7.60;;;;;21.10;102324.00;;;;2067049;28;20223;-65
2022/01/24 00:55:45;;;;;;;8.00;7.20;;;;;21.10;102320.00;;;;2064365;28;20237;-66
2022/01/24 00:56:45;;;;;;;8.15;7.45;;;;;21.10;102312.00;;;;2067695;28;20213;-65
2022/01/24 00:57:45;;;;;;;8.00;7.20;;;;;21.10;102321.00;;;;2065873;28;20647;-65
2022/01/24 00:58:46;;;;;;;8.60;7.50;;;;;21.10;102319.00;;;;2067849;28;20242;-64
2022/01/24 00:59:47;;;;;;;7.33;6.63;;;;;21.10;102313.00;;;;2068694;28;20214;-64
2022/01/24 01:00:47;;;;;;;7.00;6.30;;;;;21.10;102310.00;;;;2068249;28;20214;-65
2022/01/24 01:01:47;;;;;;;7.20;6.50;;;;;21.10;102304.00;;;;2068708;28;20447;-65
2022/01/24 01:02:48;;;;;;;8.10;7.30;;;;;21.10;102311.00;;;;2068653;28;20272;-66
2022/01/24 01:03:48;;;;;;;7.67;6.43;;;;;21.10;102316.00;;;;2063244;28;20215;-65
2022/01/24 01:06:04;;;;;;;7.77;6.97;;;;;21.10;102312.00;;;;2067681;28;20271;-65
2022/01/24 01:07:06;;;;;;;6.80;6.10;;;;;21.10;102307.00;;;;2067740;28;20629;-66
2022/01/24 01:18:19;;;;;;;6.35;5.60;;;;;21.10;102305.00;;;;2063186;28;20289;-65
2022/01/24 01:19:19;;;;;;;6.00;5.40;;;;;21.00;102302.00;;;;2066861;28;20218;-65
2022/01/24 01:20:25;;;;;;;7.57;6.80;;;;;21.00;102305.00;;;;2067429;28;20233;-66
2022/01/24 01:21:25;;;;;;;5.82;5.20;;;;;21.00;102310.00;;;;2064463;28;20218;-65
2022/01/24 01:22:25;;;;;;;5.43;4.93;;;;;21.00;102314.00;;;;2067810;28;20210;-66
2022/01/24 01:23:26;;;;;;;6.33;5.73;;;;;21.00;102305.00;;;;2067957;28;20227;-65
2022/01/24 01:24:28;;;;;;;6.50;5.50;;;;;21.00;102315.00;;;;2071183;28;20225;-66
2022/01/24 01:25:28;;;;;;;6.70;5.68;;;;;21.00;102308.00;;;;2065402;28;20268;-65
2022/01/24 01:26:34;;;;;;;5.90;5.30;;;;;21.00;102307.00;;;;2067832;28;20677;-65
2022/01/24 01:27:40;;;;;;;6.40;5.65;;;;;21.00;102310.00;;;;2067182;28;20281;-66
2022/01/24 01:28:44;;;;;;;6.35;5.43;;;;;21.00;102312.00;;;;2064429;28;20728;-66
2022/01/24 01:29:51;;;;;;;5.78;4.63;;;;;21.00;102311.00;;;;2067354;28;20219;-65
2022/01/24 01:30:55;;;;;;;5.43;4.93;;;;;21.00;102310.00;;;;2063136;28;20218;-66
2022/01/24 01:33:17;;;;;;;5.73;5.13;;;;;21.00;102312.00;;;;2059150;28;20302;-66
2022/01/24 01:34:32;;;;;;;5.20;4.80;;;;;21.00;102315.00;;;;2066057;28;20322;-65
2022/01/24 01:55:38;;;;;;;4.70;4.20;;;;;20.90;102314.00;;;;2058022;28;20758;-65
2022/01/24 01:56:39;;;;;;;4.20;3.80;;;;;20.90;102306.00;;;;2050391;28;20329;-66
2022/01/24 01:57:40;;;;;;;4.45;4.05;;;;;20.90;102310.00;;;;2050561;28;20224;-66
2022/01/24 01:58:40;;;;;;;4.40;3.87;;;;;20.90;102313.00;;;;2048529;28;20216;-66
2022/01/24 01:59:41;;;;;;;3.60;3.30;;;;;20.90;102311.00;;;;2050513;28;20420;-65
2022/01/24 02:00:43;;;;;;;4.00;3.60;;;;;20.90;102310.00;;;;2049677;28;20220;-65
2022/01/24 02:01:43;;;;;;;3.75;3.45;;;;;20.90;102301.00;;;;2066134;28;20698;-65
2022/01/24 02:02:44;;;;;;;4.13;3.73;;;;;20.90;102302.00;;;;2067814;28;20222;-66
2022/01/24 02:03:45;;;;;;;4.00;3.60;;;;;20.90;102300.00;;;;2066473;28;20221;-66
2022/01/24 02:04:46;;;;;;;3.97;3.40;;;;;20.90;102308.00;;;;2058211;28;20210;-66
2022/01/24 02:05:46;;;;;;;3.50;3.20;;;;;20.90;102297.00;;;;2066251;28;20207;-66
2022/01/24 02:06:46;;;;;;;4.20;3.80;;;;;20.90;102301.00;;;;2066931;28;20273;-65
2022/01/24 02:07:48;;;;;;;4.40;3.50;;;;;20.90;102302.00;;;;2067804;28;20211;-65
2022/01/24 02:08:48;;;;;;;3.30;3.00;;;;;20.90;102300.00;;;;2067620;28;20228;-65
2022/01/24 02:09:48;;;;;;;3.57;3.27;;;;;20.90;102296.00;;;;2067679;28;20229;-65
2022/01/24 02:10:49;;;;;;;3.50;3.20;;;;;20.90;102300.00;;;;2067965;28;20217;-65
2022/01/24 02:11:52;;;;;;;3.20;2.90;;;;;20.90;102299.00;;;;2067055;28;20276;-66
2022/01/24 02:12:55;;;;;;;3.42;3.13;;;;;20.90;102306.00;;;;2066773;28;20396;-66
2022/01/24 02:13:58;;;;;;;3.58;3.28;;;;;20.90;102301.00;;;;2066902;28;20219;-66
2022/01/24 02:15:00;;;;;;;3.90;3.60;;;;;20.90;102291.00;;;;2061620;28;20202;-66
2022/01/24 02:16:11;;;;;;;3.63;3.33;;;;;20.90;102303.00;;;;2067246;28;20261;-65
2022/01/24 02:17:17;;;;;;;4.45;3.50;;;;;20.90;102293.00;;;;2067913;28;20211;-65
2022/01/24 02:19:31;;;;;;;3.28;2.97;;;;;20.80;102294.00;;;;2059921;28;20321;-65
2022/01/24 02:21:06;;;;;;;3.70;3.40;;;;;20.80;102286.00;;;;2066016;28;20222;-65
2022/01/24 02:24:24;;;;;;;3.00;2.70;;;;;20.80;102286.00;;;;2064108;28;20219;-65
2022/01/24 02:25:27;;;;;;;2.78;2.50;;;;;20.80;102283.00;;;;2068299;28;20206;-65
2022/01/24 02:26:28;;;;;;;3.55;3.25;;;;;20.80;102285.00;;;;2068255;28;20301;-66
2022/01/24 02:27:41;;;;;;;3.10;2.80;;;;;20.90;102284.00;;;;2067226;28;20219;-66
2022/01/24 02:29:55;;;;;;;3.75;3.25;;;;;20.80;102283.00;;;;2067109;28;20652;-65
2022/01/24 02:31:56;;;;;;;3.27;2.97;;;;;20.80;102284.00;;;;2065884;28;20220;-66
2022/01/24 02:32:56;;;;;;;3.22;2.92;;;;;20.80;102284.00;;;;2067133;28;20237;-65
2022/01/24 02:33:57;;;;;;;3.50;2.93;;;;;20.80;102284.00;;;;2066706;28;20210;-66
2022/01/24 02:34:57;;;;;;;3.40;3.10;;;;;20.80;102281.00;;;;2065760;28;20333;-65
2022/01/24 02:35:57;;;;;;;2.80;2.60;;;;;20.80;102272.00;;;;2066174;28;20341;-65
2022/01/24 02:37:00;;;;;;;2.80;2.50;;;;;20.80;102272.00;;;;2067260;28;20282;-65
2022/01/24 02:38:05;;;;;;;2.60;2.20;;;;;20.80;102282.00;;;;2065985;28;20231;-65
2022/01/24 02:39:31;;;;;;;2.90;2.70;;;;;20.80;102276.00;;;;2065203;28;20214;-65
2022/01/24 02:40:28;;;;;;;3.13;2.80;;;;;20.80;102273.00;;;;2065797;28;20221;-65
2022/01/24 02:49:22;;;;;;;3.45;2.70;;;;;20.80;102254.00;;;;2064537;28;20217;-65
2022/01/24 02:51:47;;;;;;;2.40;2.20;;;;;20.70;102256.00;;;;2064220;28;20705;-65
2022/01/24 02:52:47;;;;;;;2.67;2.33;;;;;20.80;102253.00;;;;2062888;28;20217;-65
2022/01/24 02:53:47;;;;;;;3.67;2.50;;;;;20.80;102251.00;;;;2066857;28;20670;-65
2022/01/24 02:54:49;;;;;;;2.53;2.30;;;;;20.80;102252.00;;;;2066101;28;20717;-65
2022/01/24 02:55:49;;;;;;;2.33;2.13;;;;;20.70;102249.00;;;;2066824;28;20253;-65
2022/01/24 02:56:50;;;;;;;2.77;2.50;;;;;20.80;102249.00;;;;2067307;28;20246;-65
2022/01/24 02:57:50;;;;;;;2.73;2.27;;;;;20.80;102250.00;;;;2066945;28;20233;-65
2022/01/24 02:58:51;;;;;;;2.20;2.00;;;;;20.80;102243.00;;;;2068386;28;20237;-65
2022/01/24 02:59:51;;;;;;;2.40;2.20;;;;;20.70;102253.00;;;;2069342;28;20301;-65
2022/01/24 03:00:51;;;;;;;2.77;2.50;;;;;20.80;102251.00;;;;2067992;28;20230;-66
2022/01/24 03:01:52;;;;;;;2.07;1.90;;;;;20.80;102237.00;;;;2068179;28;20229;-65
2022/01/24 03:02:52;;;;;;;2.60;2.20;;;;;20.80;102245.00;;;;2067751;28;20229;-65
2022/01/24 03:03:53;;;;;;;2.80;2.53;;;;;20.70;102255.00;;;;2067794;28;20229;-66
2022/01/24 03:04:54;;;;;;;2.30;2.10;;;;;20.70;102250.00;;;;2068794;28;20218;-65
2022/01/24 03:05:55;;;;;;;2.67;2.47;;;;;20.70;102251.00;;;;2064836;28;20214;-66
2022/01/24 03:06:55;;;;;;;2.60;2.40;;;;;20.70;102250.00;;;;2064954;28;20211;-65
2022/01/24 03:07:55;;;;;;;2.00;1.80;;;;;20.70;102248.00;;;;2063709;28;20226;-65
2022/01/24 03:08:56;;;;;;;2.33;2.13;;;;;20.70;102243.00;;;;2063800;28;20214;-65
2022/01/24 03:09:56;;;;;;;2.10;1.83;;;;;20.70;102236.00;;;;2068834;28;20568;-65
2022/01/24 03:10:58;;;;;;;2.20;1.93;;;;;20.70;102246.00;;;;2068472;28;20256;-66
2022/01/24 03:14:18;;;;;;;2.20;2.00;;;;;20.70;102244.00;;;;2069382;28;20212;-66
2022/01/24 03:15:19;;;;;;;2.50;2.00;;;;;20.70;102245.00;;;;2067841;28;20596;-65
2022/01/24 03:16:19;;;;;;;2.27;2.07;;;;;20.70;102245.00;;;;2068945;28;20222;-65
2022/01/24 03:17:19;;;;;;;2.20;1.80;;;;;20.70;102251.00;;;;2068163;28;20229;-66
2022/01/24 03:18:20;;;;;;;2.40;2.10;;;;;20.70;102255.00;;;;2059959;28;20285;-65
2022/01/24 03:19:20;;;;;;;2.43;2.20;;;;;20.70;102255.00;;;;2069006;28;20215;-65
2022/01/24 03:20:20;;;;;;;2.10;1.90;;;;;20.70;102262.00;;;;2069357;28;20732;-65
2022/01/24 03:21:21;;;;;;;2.30;2.10;;;;;20.70;102255.00;;;;2069436;28;20242;-65
2022/01/24 03:22:21;;;;;;;2.23;1.67;;;;;20.70;102255.00;;;;2069479;28;20221;-65
2022/01/24 03:23:22;;;;;;;1.80;1.70;;;;;20.70;102252.00;;;;2069073;28;20280;-65
2022/01/24 03:24:22;;;;;;;3.00;1.75;;;;;20.70;102256.00;;;;2067878;28;20234;-65
2022/01/24 03:25:23;;;;;;;2.10;1.63;;;;;20.70;102251.00;;;;2069491;28;20199;-65
2022/01/24 03:26:23;;;;;;;1.60;1.50;;;;;20.70;102255.00;;;;2069482;28;20222;-65
2022/01/24 03:27:23;;;;;;;1.80;1.70;;;;;20.70;102257.00;;;;2068894;28;20308;-65
2022/01/24 03:28:24;;;;;;;2.00;1.80;;;;;20.70;102258.00;;;;2067488;28;20210;-65
2022/01/24 03:29:24;;;;;;;2.23;1.60;;;;;20.70;102253.00;;;;2068183;28;20290;-65
2022/01/24 03:30:24;;;;;;;2.20;1.67;;;;;20.70;102255.00;;;;2068560;28;20940;-65
2022/01/24 03:31:25;;;;;;;1.93;1.80;;;;;20.70;102254.00;;;;2068673;28;20563;-65
2022/01/24 03:32:25;;;;;;;2.07;1.60;;;;;20.70;102253.00;;;;2069513;28;20215;-65
2022/01/24 03:33:25;;;;;;;1.90;1.70;;;;;20.70;102248.00;;;;2069644;28;20281;-65
2022/01/24 03:34:26;;;;;;;2.20;1.80;;;;;20.70;102247.00;;;;2069436;28;20218;-65
2022/01/24 03:35:26;;;;;;;1.63;1.50;;;;;20.70;102246.00;;;;2069597;28;20202;-65
2022/01/24 03:36:26;;;;;;;1.93;1.73;;;;;20.60;102251.00;;;;2068720;28;20210;-65
2022/01/24 03:37:27;;;;;;;2.50;1.73;;;;;20.60;102250.00;;;;2067931;28;20273;-66
2022/01/24 03:38:27;;;;;;;2.13;1.73;;;;;20.70;102244.00;;;;2067927;28;20214;-65
2022/01/24 03:39:27;;;;;;;2.83;2.03;;;;;20.70;102253.00;;;;2067971;28;20265;-65
2022/01/24 03:40:28;;;;;;;1.60;1.50;;;;;20.60;102247.00;;;;2067144;28;20222;-65
2022/01/24 03:41:28;;;;;;;1.80;1.70;;;;;20.60;102256.00;;;;2069161;28;20215;-65
2022/01/24 03:42:28;;;;;;;1.90;1.70;;;;;20.60;102247.00;;;;2068923;28;20229;-64
2022/01/24 03:43:29;;;;;;;1.60;1.50;;;;;20.60;102251.00;;;;2068349;28;20214;-65
2022/01/24 03:44:29;;;;;;;1.60;1.40;;;;;20.60;102250.00;;;;2067894;28;20206;-65
2022/01/24 03:45:39;;;;;;;1.53;1.40;;;;;20.60;102254.00;;;;2068199;28;20210;-65
2022/01/24 03:48:07;;;;;;;2.33;1.65;;;;;20.60;102237.00;;;;2066569;28;20218;-66
2022/01/24 03:49:19;;;;;;;1.70;1.50;;;;;20.60;102245.00;;;;2065087;28;20676;-65
2022/01/24 03:50:19;;;;;;;1.80;1.70;;;;;20.60;102253.00;;;;2067787;28;20219;-65
2022/01/24 03:51:21;;;;;;;2.00;1.77;;;;;20.60;102249.00;;;;2068901;28;20555;-66
2022/01/24 03:52:21;;;;;;;1.70;1.60;;;;;20.60;102256.00;;;;2068976;28;20210;-65
2022/01/24 03:53:21;;;;;;;2.27;1.70;;;;;20.60;102255.00;;;;2068869;28;20214;-65
2022/01/24 03:54:22;;;;;;;1.80;1.70;;;;;20.60;102253.00;;;;2066971;28;20212;-66
2022/01/24 03:55:22;;;;;;;1.40;1.30;;;;;20.60;102257.00;;;;2068507;28;20206;-65
2022/01/24 03:56:22;;;;;;;1.50;1.40;;;;;20.60;102249.00;;;;2059261;28;20210;-65
2022/01/24 03:57:23;;;;;;;2.23;1.60;;;;;20.60;102253.00;;;;2075643;28;20241;-65
2022/01/24 03:58:23;;;;;;;1.73;1.60;;;;;20.60;102259.00;;;;2075031;28;20222;-65
2022/01/24 03:59:23;;;;;;;1.73;1.20;;;;;20.60;102256.00;;;;2069153;28;20261;-65
2022/01/24 04:00:24;;;;;;;1.70;1.40;;;;;20.60;102248.00;;;;2069118;28;20214;-65
2022/01/24 04:01:24;;;;;;;1.77;1.40;;;;;20.60;102253.00;;;;2069247;28;20207;-66
2022/01/24 04:02:25;;;;;;;1.87;1.40;;;;;20.60;102249.00;;;;2068607;28;20214;-65
2022/01/24 04:03:26;;;;;;;1.52;1.42;;;;;20.60;102254.00;;;;2068136;28;20210;-65
2022/01/24 04:04:26;;;;;;;1.87;1.60;;;;;20.60;102247.00;;;;2068339;28;20558;-66
2022/01/24 04:05:27;;;;;;;1.60;1.40;;;;;20.60;102250.00;;;;2068437;28;20209;-65
2022/01/24 04:06:27;;;;;;;1.50;1.23;;;;;20.60;102263.00;;;;2068506;28;20250;-66
2022/01/24 04:07:27;;;;;;;1.90;1.50;;;;;20.60;102249.00;;;;2068577;28;20694;-66
2022/01/24 04:08:28;;;;;;;2.50;1.40;;;;;20.60;102255.00;;;;2069226;28;20221;-65
2022/01/24 04:09:28;;;;;;;1.70;1.50;;;;;20.60;102246.00;;;;2067961;28;20753;-66
2022/01/24 04:10:28;;;;;;;1.63;1.53;;;;;20.60;102257.00;;;;2067913;28;20713;-65
2022/01/24 04:11:35;;;;;;;1.30;1.20;;;;;20.60;102248.00;;;;2068183;28;20744;-65
2022/01/24 04:12:37;;;;;;;1.55;1.30;;;;;20.60;102246.00;;;;2068338;28;20202;-65
2022/01/24 04:13:40;;;;;;;1.40;1.30;;;;;20.60;102252.00;;;;2068403;28;20222;-65
2022/01/24 04:14:54;;;;;;;1.77;1.58;;;;;20.60;102248.00;;;;2068171;28;20215;-65
2022/01/24 04:18:37;;;;;;;1.27;1.07;;;;;20.60;102243.00;;;;2068425;28;20230;-66
2022/01/24 04:22:03;;;;;;;1.30;1.00;;;;;20.60;102237.00;;;;2065394;28;20214;-65
2022/01/24 04:23:03;;;;;;;1.70;1.60;;;;;20.60;102237.00;;;;2068147;28;20757;-66
2022/01/24 04:25:06;;;;;;;1.47;1.37;;;;;20.50;102241.00;;;;2064602;28;20234;-65
2022/01/24 04:26:06;;;;;;;1.85;1.20;;;;;20.60;102243.00;;;;2067546;28;20536;-66
2022/01/24 04:27:07;;;;;;;3.33;1.60;;;;;20.50;102239.00;;;;2067453;28;20249;-65
2022/01/24 04:28:07;;;;;;;1.30;1.20;;;;;20.50;102237.00;;;;2068223;28;20211;-65
2022/01/24 04:29:08;;;;;;;1.40;1.30;;;;;20.50;102237.00;;;;2069092;28;20242;-65
2022/01/24 04:30:09;;;;;;;1.40;1.30;;;;;20.50;102240.00;;;;2068791;28;20269;-65
2022/01/24 04:31:09;;;;;;;1.20;1.10;;;;;20.50;102238.00;;;;2068073;28;20207;-65
2022/01/24 04:32:10;;;;;;;2.13;1.40;;;;;20.50;102244.00;;;;2068398;28;21071;-65
2022/01/24 04:33:11;;;;;;;1.95;1.40;;;;;20.50;102239.00;;;;2064757;28;20238;-65
2022/01/24 04:34:11;;;;;;;1.40;1.30;;;;;20.50;102236.00;;;;2068286;28;20261;-65
2022/01/24 04:35:12;;;;;;;1.30;1.20;;;;;20.50;102241.00;;;;2063920;28;20214;-66
2022/01/24 04:36:13;;;;;;;3.72;1.23;;;;;20.50;102244.00;;;;2067262;28;20289;-65
2022/01/24 04:37:13;;;;;;;1.43;1.20;;;;;20.50;102239.00;;;;2068193;28;20726;-65
2022/01/24 04:38:13;;;;;;;2.07;1.30;;;;;20.50;102245.00;;;;2069002;28;20222;-65
2022/01/24 04:39:14;;;;;;;1.30;1.13;;;;;20.50;102250.00;;;;2069101;28;20273;-65
2022/01/24 04:40:14;;;;;;;1.40;1.30;;;;;20.50;102245.00;;;;2068784;28;20214;-65
2022/01/24 04:41:22;;;;;;;2.40;1.30;;;;;20.50;102248.00;;;;2068102;28;20238;-65
2022/01/24 04:42:32;;;;;;;1.70;1.20;;;;;20.50;102254.00;;;;2065363;28;20211;-65
2022/01/24 04:44:44;;;;;;;1.20;1.08;;;;;20.50;102255.00;;;;2062693;28;20234;-66
2022/01/24 04:45:21;;;;;;;1.42;1.10;;;;;20.50;102249.00;;;;2063752;28;20225;-65
2022/01/24 04:50:21;;;;;;;1.23;1.13;;;;;20.50;102261.00;;;;2047026;28;20227;-65
2022/01/24 04:55:04;;;;;;;1.30;1.20;;;;;20.50;102250.00;;;;2059804;28;20222;-65
2022/01/24 04:56:05;;;;;;;1.30;1.03;;;;;20.50;102252.00;;;;2067827;28;20671;-65
2022/01/24 04:57:07;;;;;;;1.60;1.10;;;;;20.50;102248.00;;;;2068206;28;20211;-65
2022/01/24 04:58:07;;;;;;;1.23;1.10;;;;;20.50;102254.00;;;;2067377;28;20218;-65
2022/01/24 04:59:08;;;;;;;1.10;1.00;;;;;20.40;102250.00;;;;2060007;28;20214;-65
2022/01/24 05:00:09;;;;;;;1.20;1.00;;;;;20.50;102248.00;;;;2067648;28;20264;-66
2022/01/24 05:01:11;;;;;;;1.48;1.10;;;;;20.50;102261.00;;;;2064098;28;20260;-65
2022/01/24 05:02:11;;;;;;;1.10;1.00;;;;;20.50;102255.00;;;;2067339;28;20256;-65
2022/01/24 05:03:11;;;;;;;1.10;1.00;;;;;20.50;102260.00;;;;2068120;28;20725;-66
2022/01/24 05:04:12;;;;;;;1.00;0.80;;;;;20.40;102264.00;;;;2068440;28;20211;-66
2022/01/24 05:05:17;;;;;;;1.30;1.20;;;;;20.40;102253.00;;;;2068303;28;20210;-66
2022/01/24 05:06:17;;;;;;;1.05;0.95;;;;;20.50;102263.00;;;;2068829;28;20280;-65
2022/01/24 05:07:18;;;;;;;1.50;1.10;;;;;20.50;102259.00;;;;2068627;28;20269;-66
2022/01/24 05:08:18;;;;;;;1.20;1.10;;;;;20.40;102263.00;;;;2067808;28;20218;-66
2022/01/24 05:09:20;;;;;;;1.50;1.17;;;;;20.40;102259.00;;;;2067974;28;20292;-66
2022/01/24 05:10:30;;;;;;;1.30;1.02;;;;;20.40;102259.00;;;;2067125;28;20257;-66
2022/01/24 05:23:26;;;;;;;1.10;0.90;;;;;20.40;102261.00;;;;2064952;28;20207;-65
2022/01/24 05:24:23;;;;;;;1.20;1.00;;;;;20.40;102260.00;;;;2067659;28;20211;-66
2022/01/24 05:25:23;;;;;;;1.27;1.17;;;;;20.40;102256.00;;;;2068629;28;20682;-65
2022/01/24 05:26:24;;;;;;;2.13;1.00;;;;;20.40;102254.00;;;;2068672;28;20722;-65
2022/01/24 05:27:24;;;;;;;1.40;1.13;;;;;20.40;102257.00;;;;2068437;28;20729;-65
2022/01/24 05:28:24;;;;;;;2.33;1.20;;;;;20.40;102254.00;;;;2068588;28;20710;-65
2022/01/24 05:29:25;;;;;;;1.57;1.07;;;;;20.40;102251.00;;;;2068044;28;20224;-65
2022/01/24 05:30:25;;;;;;;1.27;1.17;;;;;20.40;102247.00;;;;2067021;28;20812;-66
2022/01/24 05:31:25;;;;;;;1.47;1.20;;;;;20.40;102254.00;;;;2067786;28;20214;-65
2022/01/24 05:32:26;;;;;;;1.17;0.97;;;;;20.40;102247.00;;;;2067892;28;20238;-66
2022/01/24 05:33:26;;;;;;;1.33;1.07;;;;;20.40;102244.00;;;;2067928;28;20211;-66
2022/01/24 05:34:26;;;;;;;1.20;1.07;;;;;20.40;102245.00;;;;2068494;28;20203;-65
2022/01/24 05:35:27;;;;;;;1.30;1.20;;;;;20.40;102246.00;;;;2068459;28;20293;-65
2022/01/24 05:36:27;;;;;;;1.00;0.90;;;;;20.40;102252.00;;;;2068686;28;20431;-65
2022/01/24 05:37:27;;;;;;;1.37;1.10;;;;;20.40;102238.00;;;;2068491;28;20221;-65
2022/01/24 05:38:28;;;;;;;1.40;1.10;;;;;20.40;102250.00;;;;2067410;28;20244;-65
2022/01/24 05:39:28;;;;;;;1.47;0.90;;;;;20.40;102248.00;;;;2067791;28;20362;-65
2022/01/24 05:40:29;;;;;;;1.10;1.00;;;;;20.40;102246.00;;;;2066374;28;20215;-65
2022/01/24 05:41:30;;;;;;;1.00;0.90;;;;;20.40;102248.00;;;;2066540;28;20222;-65
2022/01/24 05:42:30;;;;;;;1.23;1.00;;;;;20.40;102248.00;;;;2066628;28;20218;-65
2022/01/24 05:43:31;;;;;;;1.53;0.80;;;;;20.40;102249.00;;;;2068453;28;20659;-65
2022/01/24 05:44:31;;;;;;;1.17;0.90;;;;;20.40;102249.00;;;;2068494;28;20612;-66
2022/01/24 05:45:32;;;;;;;1.03;0.93;;;;;20.30;102246.00;;;;2067730;28;20256;-66
2022/01/24 05:46:33;;;;;;;1.20;0.95;;;;;20.40;102244.00;;;;2067161;28;20276;-65
2022/01/24 05:47:33;;;;;;;1.90;1.00;;;;;20.40;102251.00;;;;2066314;28;20752;-66
2022/01/24 05:48:34;;;;;;;1.00;0.90;;;;;20.40;102251.00;;;;2066583;28;20233;-65
2022/01/24 05:49:34;;;;;;;0.90;0.90;;;;;20.40;102249.00;;;;2067560;28;20225;-65
2022/01/24 05:50:35;;;;;;;1.30;1.10;;;;;20.30;102246.00;;;;2067506;28;20277;-65
2022/01/24 05:51:35;;;;;;;1.00;0.90;;;;;20.40;102255.00;;;;2068277;28;20211;-65
2022/01/24 05:52:35;;;;;;;1.37;0.97;;;;;20.40;102247.00;;;;2066783;28;20229;-65
2022/01/24 05:53:36;;;;;;;1.23;1.00;;;;;20.30;102246.00;;;;2067008;28;20582;-66
2022/01/24 05:54:37;;;;;;;1.83;0.90;;;;;20.30;102247.00;;;;2067479;28;20581;-66
2022/01/24 05:55:37;;;;;;;0.80;0.80;;;;;20.30;102241.00;;;;2062709;28;20210;-66
2022/01/24 05:56:37;;;;;;;1.20;1.10;;;;;20.30;102246.00;;;;2058608;28;20558;-65
2022/01/24 05:57:38;;;;;;;1.27;1.17;;;;;20.30;102250.00;;;;2058730;28;20790;-65
2022/01/24 05:58:38;;;;;;;0.97;0.80;;;;;20.30;102245.00;;;;2058969;28;20687;-66
2022/01/24 05:59:38;;;;;;;1.30;0.90;;;;;20.30;102252.00;;;;2067684;28;20288;-66
2022/01/24 06:00:39;;;;;;;1.20;1.10;;;;;20.30;102251.00;;;;2066341;28;20227;-66
2022/01/24 06:01:39;;;;;;;1.20;1.00;;;;;20.30;102247.00;;;;2067704;28;20210;-65
2022/01/24 06:02:40;;;;;;;1.37;1.00;;;;;20.30;102247.00;;;;2068410;28;20238;-66
2022/01/24 06:03:40;;;;;;;1.10;1.00;;;;;20.30;102251.00;;;;2067523;28;20214;-65
2022/01/24 06:04:40;;;;;;;0.90;0.80;;;;;20.30;102250.00;;;;2067528;28;20261;-66
2022/01/24 06:05:42;;;;;;;1.70;0.93;;;;;20.30;102254.00;;;;2067415;28;20781;-65
2022/01/24 06:06:42;;;;;;;1.20;1.10;;;;;20.30;102254.00;;;;2066073;28;20215;-65
2022/01/24 06:07:42;;;;;;;1.23;0.90;;;;;20.40;102252.00;;;;2067015;28;20362;-65
2022/01/24 06:08:42;;;;;;;1.27;1.17;;;;;20.30;102246.00;;;;2067191;28;20310;-66
2022/01/24 06:09:43;;;;;;;1.13;1.03;;;;;20.40;102255.00;;;;2067850;28;20955;-66
2022/01/24 06:10:45;;;;;;;1.03;0.90;;;;;20.40;102256.00;;;;2067425;28;20611;-66
2022/01/24 06:11:45;;;;;;;1.27;1.17;;;;;20.40;102248.00;;;;2064382;28;20230;-66
2022/01/24 06:12:45;;;;;;;1.37;0.97;;;;;20.40;102259.00;;;;2061072;28;20685;-66
2022/01/24 06:13:50;;;;;;;1.03;0.80;;;;;20.40;102250.00;;;;2063760;28;20637;-65
2022/01/24 06:14:50;;;;;;;1.00;0.90;;;;;20.40;102250.00;;;;2066737;28;20268;-65
2022/01/24 06:15:50;;;;;;;1.23;1.00;;;;;20.40;102253.00;;;;2058691;28;20230;-66
2022/01/24 06:16:51;;;;;;;0.97;0.87;;;;;20.40;102261.00;;;;2065079;28;20229;-65
2022/01/24 06:17:51;;;;;;;0.93;0.80;;;;;20.40;102248.00;;;;2067187;28;20309;-66
2022/01/24 06:18:51;;;;;;;1.30;0.90;;;;;20.40;102265.00;;;;2067468;28;20218;-66
2022/01/24 06:19:52;;;;;;;1.30;1.20;;;;;20.40;102250.00;;;;2067933;28;20751;-65
2022/01/24 06:20:53;;;;;;;1.10;0.80;;;;;20.40;102257.00;;;;2067912;28;20693;-65
2022/01/24 06:21:53;;;;;;;1.00;0.82;;;;;20.40;102261.00;;;;2068276;28;20270;-65
2022/01/24 06:22:53;;;;;;;0.90;0.70;;;;;20.40;102263.00;;;;2068311;28;20551;-64
2022/01/24 06:23:54;;;;;;;0.97;0.90;;;;;20.50;102262.00;;;;2067607;28;20645;-65
2022/01/24 06:24:54;;;;;;;0.80;0.60;;;;;20.50;102257.00;;;;2067317;28;20233;-65
2022/01/24 06:25:54;;;;;;;1.10;0.80;;;;;20.50;102250.00;;;;2067473;28;20214;-65
2022/01/24 06:26:55;;;;;;;1.63;0.80;;;;;20.50;102271.00;;;;2067522;28;20222;-65
2022/01/24 06:27:55;;;;;;;1.00;0.67;;;;;20.50;102270.00;;;;2067702;28;20302;-65
2022/01/24 06:28:56;;;;;;;0.77;0.70;;;;;20.50;102261.00;;;;2068122;28;20229;-65
2022/01/24 06:29:56;;;;;;;0.93;0.77;;;;;20.50;102259.00;;;;2067353;28;20213;-65
2022/01/24 06:30:58;;;;;;;1.00;0.70;;;;;20.50;102259.00;;;;2067857;28;20210;-65
2022/01/24 06:31:59;;;;;;;0.80;0.80;;;;;20.50;102261.00;;;;2067846;28;20214;-65
2022/01/24 06:32:59;;;;;;;1.47;0.70;;;;;20.50;102264.00;;;;2066930;28;20236;-65
2022/01/24 06:33:59;;;;;;;0.93;0.83;;;;;20.50;102259.00;;;;2067388;28;20271;-65
2022/01/24 06:35:00;;;;;;;1.10;0.70;;;;;20.50;102270.00;;;;2066717;28;20211;-65
2022/01/24 06:36:00;;;;;;;0.90;0.70;;;;;20.60;102261.00;;;;2067653;28;20238;-65
2022/01/24 06:37:00;;;;;;;0.87;0.80;;;;;20.60;102257.00;;;;2067301;28;20225;-66
2022/01/24 06:38:01;;;;;;;1.23;0.90;;;;;20.60;102257.00;;;;2067021;28;20215;-65
2022/01/24 06:39:02;;;;;;;1.10;0.90;;;;;20.60;102265.00;;;;2067630;28;20242;-65
2022/01/24 06:40:03;;;;;;;1.10;0.80;;;;;20.60;102260.00;;;;2066204;28;20563;-66